• Join FlightAware (Why Join?)
  • Login
  • US Flag 
Gobble Gobble! 
01:45PM EST


 

Airport Tracker/Info


-or-


 

Live Flight TrackerFlight Track Log ✈ UAL4536 ✈ 28-Apr-2013 ✈ KIAH - KCLT

Flight Track Log - Related Links

Times and Time Zones

All times are in EDT time to prevent confusion due to time zone crossing. See the UAL4536 flight status page for this flight to view local times or setup timezone preferences in your user account.

Time Position Orientation Groundspeed Altitude Reporting Facility
EDT Latitude Longitude Course Direction KTS MPH feet Rate Location/Type
02:19PM 29.9614 -95.3411 90° East 156 180 800  Level Houston Center
02:21PM 29.9342 -95.2519 109° East 249 287 3,100 1,260 Climbing Houston Center
02:22PM 29.9211 -95.1689 100° East 258 297 4,000 420 Climbing Houston Center
02:23PM 29.9834 -94.7612 90° East  Level FlightAware Approximate
02:23PM 29.9286 -95.0828 84° East 272 313 4,000  Level Houston Center
02:24PM 29.9833 -94.6182 90° East  Level FlightAware Approximate
02:24PM 29.9392 -94.9869 83° East 274 315 6,200  Level Houston Center
02:25PM 29.9834 -94.4788 90° East  Level FlightAware Approximate
02:25PM 29.9497 -94.8989 82° East 273 314 8,800  Level Houston Center
02:26PM 29.9592 -94.8192 82° East 278 320 10,300 1,140 Climbing Houston Center
02:27PM 29.9733 -94.6917 83° East 325 374 11,200 1,320 Climbing Houston Center
02:28PM 29.9858 -94.5786 83° East 350 403 13,100 1,680 Climbing Houston Center
02:29PM 29.9903 -94.4644 87° East 357 411 14,700 1,320 Climbing Houston Center
02:30PM 29.9944 -94.3464 88° East 367 422 15,900 960 Climbing Houston Center
02:31PM 30.0064 -94.2228 84° East 386 444 16,700 960 Climbing Houston Center
02:32PM 30.0258 -94.0683 82° East 404 465 17,900 1,020 Climbing Houston Center
02:33PM 30.0425 -93.9372 82° East 412 474 18,900 960 Climbing Houston Center
02:34PM 30.0583 -93.8036 82° East 421 484 19,900 960 Climbing Houston Center
02:35PM 30.0747 -93.6675 82° East 430 495 20,900 960 Climbing Houston Center
02:36PM 30.0903 -93.5286 83° East 441 507 21,900 1,200 Climbing Houston Center
02:37PM 30.1100 -93.3597 82° East 447 514 23,400 1,320 Climbing Houston Center
02:38PM 30.1267 -93.2197 82° East 446 513 24,700 1,200 Climbing Houston Center
02:39PM 30.1447 -93.0811 81° East 442 509 26,000 1,200 Climbing Houston Center
02:40PM 30.1833 -92.9497 71° East 435 501 27,300 1,020 Climbing Houston Center
02:41PM 30.2369 -92.8281 63° Northeast 427 491 28,200 900 Climbing Houston Center
02:42PM 30.3022 -92.6736 64° Northeast 444 511 29,200 840 Climbing Houston Center
02:43PM 30.3589 -92.5425 63° Northeast 454 522 30,000 900 Climbing Houston Center
02:44PM 30.4164 -92.4067 64° Northeast 468 539 31,100 1,020 Climbing Houston Center
02:45PM 30.4728 -92.2739 64° Northeast 472 543 32,200 1,140 Climbing Houston Center
02:46PM 30.5428 -92.1094 64° Northeast 477 549 33,500 1,140 Climbing Houston Center
02:47PM 30.6017 -91.9697 64° Northeast 482 555 34,600 1,020 Climbing Houston Center
02:49PM 30.6597 -91.8319 64° Northeast 479 551 35,700 960 Climbing Houston Center
02:50PM 30.7181 -91.6936 64° Northeast 479 551 36,700 600 Climbing Houston Center
02:51PM 30.7753 -91.5553 64° Northeast 479 551 37,000 120 Climbing Houston Center
02:52PM 30.8475 -91.3817 64° Northeast 499 574 37,000  Level Houston Center
02:53PM 30.9094 -91.2336 64° Northeast 509 586 37,000  Level Houston Center
02:54PM 30.9647 -91.0981 65° Northeast 510 587 37,000  Level Houston Center
02:55PM 31.0375 -90.9186 65° Northeast 508 585 37,000  Level Houston Center
02:56PM 31.0972 -90.7728 64° Northeast 501 577 37,000  Level Houston Center
02:57PM 31.1581 -90.6247 64° Northeast 503 579 37,000  Level Houston Center
02:58PM 31.2167 -90.4781 65° Northeast 499 574 37,000  Level Houston Center
02:59PM 31.2758 -90.3306 65° Northeast 500 575 37,000  Level Houston Center
03:00PM 31.3508 -90.1972 57° Northeast 491 565 37,000  Level Houston Center
03:01PM 31.4422 -90.0769 48° Northeast 492 566 37,000  Level Houston Center
03:02PM 31.5486 -89.9325 49° Northeast 488 562 37,000  Level Houston Center
03:03PM 31.6394 -89.8122 48° Northeast 491 565 37,000  Level Houston Center
03:04PM 31.6956 -89.7372 49° Northeast 488 562 37,000  Level Memphis Center
03:05PM 31.7825 -89.6194 49° Northeast 488 562 37,000  Level Memphis Center
03:05PM 31.8128 -89.5778 49° Northeast 489 563 37,000  Level Houston Center
03:06PM 31.9172 -89.4350 49° Northeast 481 554 37,000  Level Houston Center
03:07PM 31.9583 -89.3803 48° Northeast 483 556 37,000  Level Memphis Center
03:08PM 32.0428 -89.2667 49° Northeast 473 544 37,000  Level Memphis Center
03:09PM 32.1275 -89.1528 49° Northeast 462 532 37,000  Level Memphis Center
03:10PM 32.2119 -89.0389 49° Northeast 462 532 37,000  Level Memphis Center
03:11PM 32.2961 -88.9219 50° Northeast 462 532 37,000  Level Memphis Center
03:12PM 32.3783 -88.8050 50° Northeast 462 532 37,000  Level Memphis Center
03:13PM 32.4453 -88.6711 59° Northeast 467 537 37,000  Level Memphis Center
03:14PM 32.5142 -88.5194 62° Northeast 467 537 37,000  Level Memphis Center
03:15PM 32.5769 -88.3825 61° Northeast 467 537 37,000  Level Memphis Center
03:16PM 32.6883 -88.1531 60° Northeast 450 518 37,000  Level Atlanta Center
03:17PM 32.7406 -88.0219 65° Northeast 457 526 37,000  Level Atlanta Center
03:18PM 32.8056 -87.8842 61° Northeast 469 540 37,000  Level Atlanta Center
03:19PM 32.8703 -87.7436 61° Northeast 469 540 37,000  Level Atlanta Center
03:20PM 32.9328 -87.6078 61° Northeast 469 540 37,000  Level Atlanta Center
03:21PM 32.9972 -87.4667 61° Northeast 469 540 37,000  Level Atlanta Center
03:22PM 33.0664 -87.3058 63° Northeast 481 554 37,000  Level Atlanta Center
03:23PM 33.1283 -87.1642 62° Northeast 486 559 37,000  Level Atlanta Center
03:24PM 33.1922 -87.0375 59° Northeast 486 559 37,000  Level Atlanta Center
03:25PM 33.2417 -86.8853 69° East 491 565 37,000  Level Atlanta Center
03:26PM 33.2703 -86.7247 78° East 486 559 37,000  Level Atlanta Center
03:27PM 33.2944 -86.5764 79° East 481 554 37,000  Level Atlanta Center
03:28PM 33.3250 -86.3981 78° East 499 574 37,000  Level Atlanta Center
03:29PM 33.3533 -86.2247 79° East 499 574 37,000  Level Atlanta Center
03:30PM 33.3789 -86.0614 79° East 504 580 37,000  Level Atlanta Center
03:31PM 33.4047 -85.8928 80° East 504 580 37,000  Level Atlanta Center
03:32PM 33.4319 -85.7389 78° East 497 572 37,000  Level Atlanta Center
03:33PM 33.4569 -85.5750 80° East 492 566 37,000  Level Atlanta Center
03:34PM 33.4797 -85.4111 80° East 498 573 37,000  Level Atlanta Center
03:35PM 33.5067 -85.2472 79° East 498 573 37,000  Level Atlanta Center
03:36PM 33.5311 -85.0856 80° East 498 573 37,000  Level Atlanta Center
03:37PM 33.5553 -84.9236 80° East 498 573 37,000 -360 Level Atlanta Center
03:38PM 33.5814 -84.7594 79° East 498 573 36,300 -780 Descending Atlanta Center
03:39PM 33.6008 -84.6175 81° East 498 573 35,500 -660 Descending Atlanta Center
03:40PM 33.6244 -84.4356 81° East 498 573 35,000 -300 Descending Atlanta Center
03:41PM 33.6689 -84.2833 71° East 486 559 35,000  Level Atlanta Center
03:42PM 33.7169 -84.1236 70° East 490 564 35,000  Level Atlanta Center
03:43PM 33.7586 -83.9689 72° East 498 573 35,000  Level Atlanta Center
03:44PM 33.8044 -83.8114 71° East 493 567 35,000  Level Atlanta Center
03:45PM 33.8478 -83.6536 72° East 493 567 35,000 -420 Level Atlanta Center
03:46PM 33.8911 -83.4983 71° East 493 567 34,200 -1,200 Descending Atlanta Center
03:47PM 33.9322 -83.3428 72° East 483 556 32,600 -1,440 Descending Atlanta Center
03:48PM 33.9689 -83.2097 72° East 483 556 31,400 -1,380 Descending Atlanta Center
03:49PM 34.0136 -83.0489 71° East 490 564 29,900 -1,200 Descending Atlanta Center
03:50PM 34.0581 -82.8878 72° East 495 570 29,000 -480 Descending Atlanta Center
03:51PM 34.1003 -82.7292 72° East 500 575 29,000 -240 Level Atlanta Center
03:52PM 34.1464 -82.5528 72° East 500 575 28,600 -1,440 Descending Atlanta Center
03:53PM 34.1903 -82.3939 71° East 500 575 26,200 -2,280 Descending Atlanta Center
03:54PM 34.2297 -82.2372 73° East 500 575 24,100 -1,560 Descending Atlanta Center
03:55PM 34.2922 -82.0978 61° Northeast 491 565 23,100 -1,860 Descending Atlanta Center
03:56PM 34.3783 -81.9925 45° Northeast 444 511 20,400 -2,700 Descending Atlanta Center
03:57PM 34.4581 -81.8900 47° Northeast 438 504 17,800 -2,460 Descending Atlanta Center
03:58PM 34.5356 -81.7919 46° Northeast 411 473 15,500 -2,400 Descending Atlanta Center
03:59PM 34.6108 -81.6992 45° Northeast 393 452 13,100 -2,220 Descending Atlanta Center
04:00PM 34.6844 -81.6139 44° Northeast 366 421 11,100 -1,080 Descending Atlanta Center
04:01PM 34.7453 -81.5336 47° Northeast 335 386 11,000 -300 Descending Atlanta Center
04:02PM 34.7936 -81.4411 58° Northeast 318 366 10,600 -720 Descending Atlanta Center
04:03PM 34.7992 -81.4081 78° East 319 367 10,100 -1,440 Descending Atlanta Center
04:03PM 34.8164 -81.3417 72° East 308 354 9,200 -1,380 Descending Atlanta Center
04:04PM 34.8197 -81.3036 84° East 303 349 8,700 -1,440 Descending Atlanta Center
04:04PM 34.8289 -81.2453 79° East 298 343 7,800 -1,200 Descending Atlanta Center
04:05PM 34.8325 -81.2197 80° East 286 329 7,600 -840 Descending Atlanta Center
04:05PM 34.8414 -81.1561 80° East 279 321 7,000 -720 Descending Atlanta Center
04:06PM 34.8511 -81.1256 69° East 245 282 6,800 -1,020 Descending Atlanta Center
04:06PM 34.8836 -81.0864 45° Northeast 244 281 6,000 -1,380 Descending Atlanta Center
04:07PM 34.9039 -81.0653 40° Northeast 258 297 5,400 -1,020 Descending Atlanta Center
04:07PM 34.9367 -81.0314 40° Northeast 239 275 5,000 -480 Descending Atlanta Center
04:08PM 34.9528 -81.0156 39° Northeast 250 288 5,000  Level Atlanta Center
04:08PM 34.9853 -80.9814 41° Northeast 233 268 5,000 -240 Level Atlanta Center
04:09PM 34.9975 -80.9683 41° Northeast 210 242 4,800 -1,020 Descending Atlanta Center
04:10PM 35.0514 -80.9536 13° North 206 237 3,700 -1,140 Descending Atlanta Center
04:11PM 35.1122 -80.9589 356° North 198 228 2,500 -1,200 Descending Atlanta Center